Time;durP1;ratioP1;P1;durP2;ratioP2;P2;SDS_P1;SDS_P2;PMS_P1;PMS_P2;Temp;Humidity;BMP_temperature;BMP_pressure;BME280_temperature;BME280_humidity;BME280_pressure;Samples;Min_cycle;Max_cycle;Signal;HPM_P1;HPM_P2
2022/07/23 00:00:10;;;;;;;7.65;5.88;;;;;;;21.58;66.66;100316.50;5023135;28;20049;-69
2022/07/23 00:02:36;;;;;;;7.25;6.28;;;;;;;21.56;66.97;100318.50;5030330;28;20077;-70
2022/07/23 00:05:03;;;;;;;7.60;6.03;;;;;;;21.48;67.12;100302.19;5024640;28;20075;-71
2022/07/23 00:07:30;;;;;;;9.50;6.13;;;;;;;21.49;67.26;100297.66;5018883;28;20049;-70
2022/07/23 00:09:57;;;;;;;10.25;5.93;;;;;;;21.41;67.62;100292.16;5027850;28;20041;-70
2022/07/23 00:12:23;;;;;;;7.22;6.47;;;;;;;21.27;67.95;100283.50;5026374;28;20057;-69
2022/07/23 00:14:50;;;;;;;8.32;6.07;;;;;;;21.31;68.14;100290.31;5031070;28;20174;-69
2022/07/23 00:17:17;;;;;;;8.75;6.45;;;;;;;21.23;68.05;100278.56;5027846;28;20045;-69
2022/07/23 00:19:44;;;;;;;9.90;6.45;;;;;;;21.20;68.25;100278.84;5031594;28;20552;-69
2022/07/23 00:22:11;;;;;;;10.07;6.70;;;;;;;21.20;68.59;100282.38;5022255;28;20132;-70
2022/07/23 00:24:37;;;;;;;8.00;6.72;;;;;;;21.17;68.98;100287.16;5025810;28;20145;-70
2022/07/23 00:27:04;;;;;;;6.45;5.85;;;;;;;21.15;68.93;100287.31;5030145;28;20081;-73
2022/07/23 00:29:30;;;;;;;10.02;6.35;;;;;;;21.10;69.23;100294.09;5028910;28;20073;-70
2022/07/23 00:31:57;;;;;;;7.43;6.63;;;;;;;21.09;69.55;100298.66;5026616;28;20068;-69
2022/07/23 00:34:23;;;;;;;7.82;6.53;;;;;;;21.01;69.41;100291.28;5027396;28;20057;-70
2022/07/23 00:36:50;;;;;;;9.38;6.40;;;;;;;21.10;69.30;100310.25;5023359;28;20490;-70
2022/07/23 00:39:17;;;;;;;8.35;6.28;;;;;;;20.92;69.37;100294.84;5029542;28;20822;-69
2022/07/23 00:41:43;;;;;;;8.75;6.30;;;;;;;20.99;69.38;100314.78;5024812;28;20481;-70
2022/07/23 00:44:20;;;;;;;8.10;6.72;;;;;;;21.00;69.88;100316.50;5013334;28;20522;-70
2022/07/23 00:46:56;;;;;;;8.00;6.70;;;;;;;20.91;69.63;100292.28;5021330;28;20056;-70
2022/07/23 00:49:26;;;;;;;7.90;6.72;;;;;;;20.98;69.92;100304.16;5025932;28;20053;-70
2022/07/23 00:51:53;;;;;;;8.13;6.35;;;;;;;20.94;70.07;100292.81;5030966;28;20505;-71
2022/07/23 00:54:23;;;;;;;8.02;5.80;;;;;;;20.91;70.17;100289.59;5027357;28;20183;-70
2022/07/23 00:56:49;;;;;;;10.07;6.47;;;;;;;20.85;70.43;100292.81;5024996;28;20077;-70
2022/07/23 00:59:16;;;;;;;8.90;6.30;;;;;;;20.84;70.46;100296.50;5036142;28;20042;-70
2022/07/23 01:01:48;;;;;;;7.93;6.32;;;;;;;20.74;70.56;100276.81;5022111;28;20088;-70
2022/07/23 01:04:16;;;;;;;8.40;6.57;;;;;;;20.80;70.85;100285.16;5026426;28;20048;-70
2022/07/23 01:06:44;;;;;;;9.18;6.88;;;;;;;20.81;70.88;100296.78;5023629;28;20411;-70
2022/07/23 01:09:12;;;;;;;6.65;5.97;;;;;;;20.78;71.11;100297.91;5023382;28;20045;-69
2022/07/23 01:11:39;;;;;;;9.27;6.38;;;;;;;20.76;71.12;100293.69;5026647;28;20048;-69
2022/07/23 01:14:09;;;;;;;7.32;6.60;;;;;;;20.70;71.67;100288.84;5028940;28;20061;-69
2022/07/23 01:16:36;;;;;;;7.82;6.65;;;;;;;20.67;72.24;100295.34;5029379;28;20081;-70
2022/07/23 01:19:06;;;;;;;9.18;6.30;;;;;;;20.62;72.22;100306.50;5029828;28;20124;-70
2022/07/23 01:21:42;;;;;;;7.10;6.30;;;;;;;20.62;72.42;100302.97;5025867;28;20049;-68
2022/07/23 01:24:09;;;;;;;7.18;6.38;;;;;;;20.63;72.24;100302.84;5039085;28;20073;-68
2022/07/23 01:26:37;;;;;;;10.23;6.55;;;;;;;20.67;72.44;100306.09;5021566;28;20073;-69
2022/07/23 01:29:04;;;;;;;8.50;6.50;;;;;;;20.67;72.65;100325.78;5026493;28;20080;-70
2022/07/23 01:31:31;;;;;;;8.00;6.63;;;;;;;20.68;72.36;100329.34;5022077;28;20073;-70
2022/07/23 01:33:58;;;;;;;8.52;6.60;;;;;;;20.73;72.73;100332.47;5024938;28;20129;-70
2022/07/23 01:36:26;;;;;;;8.32;6.20;;;;;;;20.77;72.26;100325.84;5019661;28;20643;-69
2022/07/23 01:38:52;;;;;;;7.15;6.05;;;;;;;20.78;72.25;100313.22;5024122;28;20046;-70
2022/07/23 01:41:19;;;;;;;8.48;7.05;;;;;;;20.87;72.30;100320.47;5026426;28;20041;-70
2022/07/23 01:43:46;;;;;;;7.40;6.55;;;;;;;20.85;72.25;100309.81;5026123;28;20045;-70
2022/07/23 01:46:12;;;;;;;7.78;6.90;;;;;;;20.74;72.47;100291.13;5020437;28;20069;-69
2022/07/23 01:48:39;;;;;;;7.10;6.18;;;;;;;20.76;72.57;100286.44;5020921;28;20072;-70
2022/07/23 01:51:06;;;;;;;8.38;7.03;;;;;;;20.88;72.29;100279.09;5021269;28;20508;-69
2022/07/23 01:53:33;;;;;;;8.23;7.03;;;;;;;20.87;72.38;100253.16;5027482;28;20042;-69
2022/07/23 01:56:00;;;;;;;8.90;6.95;;;;;;;20.79;72.86;100245.78;5027190;28;20037;-69
2022/07/23 01:58:27;;;;;;;7.95;6.75;;;;;;;20.74;73.53;100268.75;5018775;28;20404;-69
2022/07/23 02:00:54;;;;;;;7.45;6.60;;;;;;;20.70;73.90;100288.84;5024833;28;20446;-69
2022/07/23 02:03:21;;;;;;;7.25;6.55;;;;;;;20.59;74.33;100274.53;5028911;28;20042;-69
2022/07/23 02:05:48;;;;;;;7.97;7.18;;;;;;;20.65;74.35;100287.41;5023399;28;20099;-69
2022/07/23 02:08:16;;;;;;;10.65;7.10;;;;;;;20.71;74.32;100299.47;5023149;28;20100;-69
2022/07/23 02:10:42;;;;;;;10.20;6.75;;;;;;;20.72;74.24;100297.63;5029047;28;20512;-69
2022/07/23 02:13:09;;;;;;;7.97;7.18;;;;;;;20.54;74.32;100278.63;5025959;28;20548;-70
2022/07/23 02:15:38;;;;;;;8.13;6.85;;;;;;;20.48;74.44;100280.00;5026045;28;20136;-69
2022/07/23 02:18:04;;;;;;;9.82;7.10;;;;;;;20.49;75.00;100291.63;5034663;28;20456;-69
2022/07/23 02:20:31;;;;;;;10.20;7.25;;;;;;;20.45;75.05;100306.34;5025227;28;20228;-69
2022/07/23 02:22:58;;;;;;;10.48;7.15;;;;;;;20.60;75.56;100337.25;5035145;28;20452;-70
2022/07/23 02:25:24;;;;;;;9.07;7.22;;;;;;;20.63;75.19;100337.81;5027954;28;20146;-69
2022/07/23 02:27:51;;;;;;;7.88;6.70;;;;;;;20.59;75.02;100332.88;5025500;28;20090;-69
2022/07/23 02:30:17;;;;;;;8.65;6.95;;;;;;;20.56;75.43;100328.59;5023807;28;20038;-69
2022/07/23 02:32:44;;;;;;;7.93;6.72;;;;;;;20.57;75.39;100333.00;5025846;28;20152;-69
2022/07/23 02:35:11;;;;;;;7.97;6.95;;;;;;;20.56;75.46;100325.06;5027667;28;20448;-69
2022/07/23 02:37:37;;;;;;;9.32;7.50;;;;;;;20.54;75.35;100319.81;5022321;28;20057;-69
2022/07/23 02:40:04;;;;;;;8.05;6.85;;;;;;;20.53;75.25;100326.19;5023944;28;20617;-69
2022/07/23 02:42:31;;;;;;;8.15;6.88;;;;;;;20.48;75.38;100317.66;5022832;28;20081;-69
2022/07/23 02:44:58;;;;;;;8.63;7.03;;;;;;;20.44;75.38;100308.19;5018579;28;20535;-69
2022/07/23 02:47:24;;;;;;;8.38;6.45;;;;;;;20.43;75.46;100319.09;5023353;28;20084;-68
2022/07/23 02:49:51;;;;;;;7.45;6.60;;;;;;;20.49;75.35;100326.59;5019897;28;20057;-69
2022/07/23 02:52:17;;;;;;;9.00;7.10;;;;;;;20.51;74.87;100333.53;5023660;28;20084;-68
2022/07/23 02:54:44;;;;;;;9.60;6.95;;;;;;;20.50;74.77;100339.06;5021338;28;20053;-69
2022/07/23 02:57:11;;;;;;;8.30;6.53;;;;;;;20.48;75.33;100331.13;5021165;28;20073;-69
2022/07/23 02:59:37;;;;;;;9.68;6.47;;;;;;;20.45;75.40;100326.03;5025608;28;20540;-69
2022/07/23 03:02:04;;;;;;;7.75;6.93;;;;;;;20.46;75.59;100327.72;5019144;28;20484;-70
2022/07/23 03:04:30;;;;;;;7.97;6.78;;;;;;;20.43;75.59;100321.78;5028783;28;20501;-69
2022/07/23 03:06:57;;;;;;;9.45;7.05;;;;;;;20.47;75.66;100336.63;5022690;28;20045;-69
2022/07/23 03:09:23;;;;;;;7.97;7.18;;;;;;;20.40;75.70;100322.91;5022840;28;20042;-69
2022/07/23 03:11:50;;;;;;;10.93;6.63;;;;;;;20.46;75.61;100330.41;5021806;28;20061;-69
2022/07/23 03:14:16;;;;;;;7.78;6.90;;;;;;;20.29;75.62;100302.31;5031878;28;20072;-69
2022/07/23 03:16:43;;;;;;;8.98;6.88;;;;;;;20.40;75.50;100322.91;5021768;28;20061;-69
2022/07/23 03:19:10;;;;;;;7.30;6.60;;;;;;;20.29;75.49;100294.25;5025668;28;20113;-69
2022/07/23 03:21:40;;;;;;;8.52;6.78;;;;;;;20.40;75.45;100327.41;5028061;28;20054;-71
2022/07/23 03:24:09;;;;;;;7.38;6.43;;;;;;;20.33;75.43;100324.38;5031033;28;20045;-69
2022/07/23 03:26:36;;;;;;;7.30;6.43;;;;;;;20.32;75.34;100328.06;5027106;28;20058;-69
2022/07/23 03:29:03;;;;;;;9.00;6.55;;;;;;;20.33;75.46;100332.44;5027589;28;20453;-69
2022/07/23 03:31:31;;;;;;;7.65;6.75;;;;;;;20.14;75.83;100319.81;5023752;28;20131;-69
2022/07/23 03:33:58;;;;;;;10.55;7.00;;;;;;;20.15;75.89;100336.75;5030363;28;20052;-68
2022/07/23 03:36:24;;;;;;;8.60;6.72;;;;;;;20.03;76.64;100325.25;5028314;28;20080;-69
2022/07/23 03:38:52;;;;;;;9.40;7.15;;;;;;;20.07;76.81;100337.44;5027701;28;20052;-70
2022/07/23 03:41:20;;;;;;;7.45;6.75;;;;;;;20.13;76.79;100341.44;5028466;28;20520;-69
2022/07/23 03:43:47;;;;;;;10.18;6.95;;;;;;;20.14;76.88;100351.22;5029071;28;20114;-69
2022/07/23 03:46:13;;;;;;;8.63;7.03;;;;;;;20.10;77.22;100349.75;5029798;28;20045;-69
2022/07/23 03:48:40;;;;;;;8.57;7.60;;;;;;;20.10;77.05;100353.31;5033842;28;20072;-69
2022/07/23 03:51:07;;;;;;;8.05;7.25;;;;;;;20.06;77.50;100361.75;5041951;28;20096;-69
2022/07/23 03:53:34;;;;;;;9.00;7.60;;;;;;;20.07;77.64;100364.31;5026944;28;20053;-69
2022/07/23 03:56:00;;;;;;;9.20;7.53;;;;;;;20.00;77.92;100360.44;5031981;28;20045;-69
2022/07/23 03:58:27;;;;;;;8.88;7.15;;;;;;;19.90;77.70;100348.81;5030101;28;20084;-68
2022/07/23 04:00:53;;;;;;;7.97;7.18;;;;;;;20.04;78.03;100364.59;5027265;28;20164;-70
2022/07/23 04:03:20;;;;;;;8.02;7.22;;;;;;;20.03;78.13;100370.09;5032875;28;20080;-69
2022/07/23 04:05:46;;;;;;;9.40;8.02;;;;;;;20.07;78.57;100376.91;5025485;28;20129;-71
2022/07/23 04:08:13;;;;;;;11.52;8.77;;;;;;;20.12;77.80;100380.06;5024651;28;20133;-69
2022/07/23 04:10:40;;;;;;;8.65;7.57;;;;;;;20.11;77.75;100383.72;5022517;28;20076;-70
2022/07/23 04:13:06;;;;;;;9.93;7.68;;;;;;;20.12;77.79;100382.75;5028311;28;20079;-69
2022/07/23 04:15:33;;;;;;;8.48;7.57;;;;;;;20.10;77.77;100380.19;5026922;28;20061;-69
2022/07/23 04:17:59;;;;;;;12.13;8.82;;;;;;;20.06;78.06;100380.59;5027842;28;20504;-69
2022/07/23 04:20:26;;;;;;;8.98;7.82;;;;;;;19.99;78.60;100382.94;5024009;28;20663;-69
2022/07/23 04:22:52;;;;;;;10.85;7.95;;;;;;;19.80;78.75;100358.66;5026610;28;20141;-70
2022/07/23 04:25:19;;;;;;;10.48;8.15;;;;;;;19.84;79.29;100371.66;5027838;28;20569;-69
2022/07/23 04:27:45;;;;;;;8.93;8.02;;;;;;;19.90;79.35;100379.22;5028576;28;20080;-70
2022/07/23 04:30:12;;;;;;;9.68;8.38;;;;;;;19.75;79.12;100368.94;5028201;28;20081;-70
2022/07/23 04:32:38;;;;;;;11.13;9.02;;;;;;;19.73;79.50;100376.25;5027713;28;20103;-69
2022/07/23 04:35:05;;;;;;;9.38;8.38;;;;;;;19.83;79.42;100401.38;5025619;28;20113;-71
2022/07/23 04:37:32;;;;;;;11.40;9.23;;;;;;;19.80;79.07;100415.06;5023766;28;20115;-70
2022/07/23 04:39:58;;;;;;;12.15;8.98;;;;;;;19.78;79.27;100412.53;5026984;28;20079;-70
2022/07/23 04:42:25;;;;;;;9.23;8.25;;;;;;;19.69;79.36;100397.16;5029199;28;20068;-69
2022/07/23 04:44:52;;;;;;;10.18;8.57;;;;;;;19.79;78.77;100406.16;5028718;28;20132;-70
2022/07/23 04:47:18;;;;;;;10.52;8.50;;;;;;;19.83;78.95;100407.59;5024830;28;20124;-70
2022/07/23 04:49:48;;;;;;;9.85;8.85;;;;;;;19.84;79.17;100421.88;5031263;28;20151;-70
2022/07/23 04:52:15;;;;;;;11.75;8.90;;;;;;;19.88;78.32;100426.88;5021524;28;20037;-70
2022/07/23 04:54:41;;;;;;;11.10;8.68;;;;;;;19.76;77.99;100406.41;5022451;28;20054;-69
2022/07/23 04:57:08;;;;;;;11.45;8.10;;;;;;;19.95;77.56;100441.50;5023478;28;20115;-69
2022/07/23 04:59:35;;;;;;;10.30;8.90;;;;;;;20.06;76.40;100447.78;5026631;28;20061;-70
2022/07/23 05:02:01;;;;;;;10.77;8.60;;;;;;;20.09;76.66;100444.84;5022666;28;20050;-69
2022/07/23 05:04:28;;;;;;;10.88;8.63;;;;;;;20.13;75.82;100438.22;5029957;28;20481;-69
2022/07/23 05:06:54;;;;;;;10.32;9.18;;;;;;;20.24;75.84;100448.91;5024823;28;20049;-69
2022/07/23 05:09:21;;;;;;;12.88;8.70;;;;;;;20.23;74.83;100437.28;5027197;28;20649;-70
2022/07/23 05:11:48;;;;;;;9.90;8.18;;;;;;;20.23;75.09;100447.19;5022904;28;20136;-69
2022/07/23 05:14:14;;;;;;;12.50;8.95;;;;;;;20.21;74.53;100443.78;5025978;28;20505;-70
2022/07/23 05:16:41;;;;;;;13.88;9.00;;;;;;;20.23;73.63;100453.41;5022509;28;20077;-69
2022/07/23 05:19:08;;;;;;;12.13;8.18;;;;;;;20.11;73.16;100435.66;5025446;28;20080;-70
2022/07/23 05:21:35;;;;;;;13.48;9.15;;;;;;;20.16;73.13;100462.13;5025256;28;20501;-70
2022/07/23 05:24:02;;;;;;;10.75;8.27;;;;;;;20.16;72.98;100456.75;5024536;28;20485;-70
2022/07/23 05:26:28;;;;;;;12.90;8.98;;;;;;;20.17;72.77;100448.56;5028337;28;20095;-70
2022/07/23 05:28:55;;;;;;;11.93;9.35;;;;;;;20.15;72.06;100444.28;5019029;28;20049;-69
2022/07/23 05:31:22;;;;;;;10.38;8.75;;;;;;;20.12;71.48;100433.81;5029027;28;20041;-68
2022/07/23 05:33:49;;;;;;;9.73;8.73;;;;;;;20.11;71.67;100446.41;5017936;28;20055;-69
2022/07/23 05:36:15;;;;;;;11.48;8.93;;;;;;;20.02;71.45;100430.22;5019273;28;20714;-69
2022/07/23 05:38:42;;;;;;;9.65;8.55;;;;;;;20.07;70.91;100442.28;5021812;28;20406;-69
2022/07/23 05:41:08;;;;;;;11.88;8.77;;;;;;;20.03;70.98;100464.16;5024787;28;20041;-69
2022/07/23 05:43:35;;;;;;;11.48;8.15;;;;;;;19.86;71.13;100453.00;5024297;28;20053;-69
2022/07/23 05:46:01;;;;;;;11.07;8.95;;;;;;;20.03;70.73;100481.16;5024496;28;20124;-69
2022/07/23 05:48:28;;;;;;;10.63;8.88;;;;;;;20.08;70.53;100481.63;5022337;28;20057;-69
2022/07/23 05:50:55;;;;;;;12.15;9.40;;;;;;;20.08;70.26;100489.69;5019814;28;20061;-70
2022/07/23 05:53:21;;;;;;;9.90;8.40;;;;;;;20.00;70.33;100462.59;5021728;28;20810;-69
2022/07/23 05:55:48;;;;;;;11.20;8.65;;;;;;;20.13;70.24;100483.94;5022807;28;20129;-71
2022/07/23 05:58:15;;;;;;;12.80;8.65;;;;;;;20.11;70.46;100475.13;5017856;28;20045;-69
2022/07/23 06:00:41;;;;;;;10.30;8.60;;;;;;;20.25;70.39;100480.19;5026432;28;20069;-70
2022/07/23 06:03:08;;;;;;;9.98;8.00;;;;;;;20.40;69.54;100478.88;5022991;28;20084;-70
2022/07/23 06:05:34;;;;;;;9.82;7.85;;;;;;;20.49;69.43;100475.38;5021955;28;20054;-69
2022/07/23 06:08:01;;;;;;;10.35;8.27;;;;;;;20.44;68.36;100449.91;5021889;28;20084;-70
2022/07/23 06:10:27;;;;;;;10.57;7.60;;;;;;;20.45;68.71;100465.91;5022681;28;20076;-70
2022/07/23 06:12:54;;;;;;;10.57;7.85;;;;;;;20.54;67.63;100486.59;5028489;28;20091;-70
2022/07/23 06:15:28;;;;;;;11.98;8.25;;;;;;;20.49;67.75;100483.47;5024502;28;20053;-68
2022/07/23 06:17:54;;;;;;;9.02;7.55;;;;;;;20.55;68.26;100493.69;5021173;28;20136;-70
2022/07/23 06:20:21;;;;;;;9.77;7.70;;;;;;;20.62;68.19;100481.41;5015347;28;20053;-69
2022/07/23 06:22:47;;;;;;;9.63;8.00;;;;;;;20.86;66.70;100483.78;5021288;28;20088;-69
2022/07/23 06:25:16;;;;;;;8.82;7.68;;;;;;;21.03;66.59;100490.38;5013875;28;20073;-70
2022/07/23 06:27:45;;;;;;;10.23;7.70;;;;;;;21.25;65.17;100489.34;5024541;28;20053;-71
2022/07/23 06:30:13;;;;;;;10.52;7.68;;;;;;;21.43;64.78;100486.81;5025737;28;20045;-70
2022/07/23 06:32:43;;;;;;;9.85;7.10;;;;;;;21.72;62.73;100468.00;5025294;28;20057;-69
2022/07/23 06:35:10;;;;;;;7.60;6.80;;;;;;;22.29;59.50;100492.25;5027853;28;20613;-70
2022/07/23 06:37:37;;;;;;;8.13;6.95;;;;;;;22.43;58.82;100476.59;5029567;28;20061;-70
2022/07/23 06:40:04;;;;;;;7.72;6.88;;;;;;;22.78;57.89;100497.53;5026136;28;20081;-70
2022/07/23 06:42:31;;;;;;;10.98;6.78;;;;;;;23.06;57.15;100499.25;5031054;28;20050;-70
2022/07/23 06:44:58;;;;;;;10.30;6.65;;;;;;;23.42;55.79;100487.53;5026410;28;20498;-70
2022/07/23 06:47:25;;;;;;;6.22;5.63;;;;;;;23.75;55.44;100477.09;5030154;28;20660;-71
2022/07/23 06:49:51;;;;;;;6.53;5.93;;;;;;;24.24;54.13;100502.72;5020108;28;20065;-70
2022/07/23 06:52:18;;;;;;;6.75;5.45;;;;;;;24.41;52.24;100472.06;5028895;28;20069;-71
2022/07/23 06:54:44;;;;;;;8.73;5.70;;;;;;;24.92;51.13;100494.69;5024120;28;20073;-70
2022/07/23 06:57:11;;;;;;;7.70;5.35;;;;;;;25.01;50.10;100474.81;5024401;28;20053;-71
2022/07/23 06:59:40;;;;;;;8.50;5.78;;;;;;;25.05;49.75;100491.56;5015182;28;20141;-70
2022/07/23 07:02:07;;;;;;;6.32;5.35;;;;;;;24.85;50.61;100477.41;5026059;28;20049;-69
2022/07/23 07:04:34;;;;;;;6.00;5.18;;;;;;;24.81;50.43;100484.16;5028002;28;20453;-69
2022/07/23 07:07:01;;;;;;;5.95;5.30;;;;;;;24.62;49.30;100487.09;5024899;28;20076;-71
2022/07/23 07:09:28;;;;;;;6.28;5.22;;;;;;;24.66;49.83;100491.19;5021241;28;20095;-70
2022/07/23 07:11:54;;;;;;;5.47;4.72;;;;;;;24.78;48.64;100481.75;5026429;28;20111;-68
2022/07/23 07:14:21;;;;;;;8.80;5.40;;;;;;;24.98;47.83;100502.22;5021607;28;20099;-71
2022/07/23 07:16:47;;;;;;;5.82;4.97;;;;;;;24.99;47.27;100490.38;5019977;28;20656;-69
2022/07/23 07:19:14;;;;;;;6.35;5.28;;;;;;;25.15;47.19;100516.69;5016543;28;20081;-69
2022/07/23 07:21:40;;;;;;;5.97;5.05;;;;;;;25.04;47.16;100501.56;5015239;28;20190;-71
2022/07/23 07:24:07;;;;;;;7.95;5.20;;;;;;;25.18;47.24;100522.63;5019427;28;20176;-69
2022/07/23 07:26:34;;;;;;;7.00;4.85;;;;;;;25.15;47.22;100527.53;5018256;28;20080;-69
2022/07/23 07:29:00;;;;;;;6.38;5.20;;;;;;;25.23;47.94;100532.13;5016048;28;20045;-69
2022/07/23 07:31:28;;;;;;;5.55;5.00;;;;;;;25.35;47.23;100509.97;5018316;28;20077;-69
2022/07/23 07:33:56;;;;;;;5.75;4.57;;;;;;;25.57;46.86;100494.13;5013659;28;20592;-70
2022/07/23 07:36:23;;;;;;;7.50;5.18;;;;;;;25.73;46.17;100526.72;5022433;28;20058;-68
2022/07/23 07:38:50;;;;;;;5.90;5.07;;;;;;;25.67;46.63;100516.53;5016333;28;20088;-71
2022/07/23 07:41:17;;;;;;;6.43;5.03;;;;;;;25.83;46.46;100532.84;5012711;28;20136;-71
2022/07/23 07:43:43;;;;;;;6.88;4.90;;;;;;;25.52;46.46;100516.28;5014202;28;20115;-69
2022/07/23 07:46:10;;;;;;;6.82;5.20;;;;;;;25.60;46.84;100540.75;5017334;28;20073;-69
2022/07/23 07:48:37;;;;;;;7.75;5.00;;;;;;;25.79;46.83;100542.34;5013611;28;20177;-69
2022/07/23 07:51:04;;;;;;;6.97;5.15;;;;;;;26.10;46.16;100539.84;5021990;28;20041;-70
2022/07/23 07:53:31;;;;;;;7.30;5.00;;;;;;;26.07;45.43;100516.59;5019157;28;20154;-70
2022/07/23 07:55:58;;;;;;;5.15;4.65;;;;;;;26.11;45.47;100542.38;5020292;28;20864;-70
2022/07/23 07:58:25;;;;;;;5.22;4.72;;;;;;;25.96;47.18;100522.38;5014922;28;20137;-70
2022/07/23 08:00:51;;;;;;;5.68;4.78;;;;;;;26.35;44.58;100548.88;5021649;28;20448;-70
2022/07/23 08:03:18;;;;;;;7.18;4.72;;;;;;;26.47;44.82;100553.78;5016386;28;20073;-69
2022/07/23 08:05:45;;;;;;;5.15;4.43;;;;;;;26.63;45.95;100562.91;5025007;28;20045;-69
2022/07/23 08:08:14;;;;;;;5.32;4.53;;;;;;;26.64;43.56;100570.91;5019284;28;20048;-71
2022/07/23 08:10:41;;;;;;;7.03;4.73;;;;;;;26.52;44.73;100569.56;5026096;28;20038;-69
2022/07/23 08:13:13;;;;;;;5.53;4.30;;;;;;;26.47;43.72;100561.91;5022076;28;20050;-68
2022/07/23 08:15:40;;;;;;;6.20;4.88;;;;;;;26.46;43.73;100560.22;5022481;28;20092;-70
2022/07/23 08:18:07;;;;;;;6.70;4.50;;;;;;;26.43;44.15;100533.44;5017223;28;20512;-70
2022/07/23 08:20:33;;;;;;;4.80;4.40;;;;;;;26.67;44.52;100565.13;5028103;28;20476;-71
2022/07/23 08:23:03;;;;;;;5.30;4.60;;;;;;;26.42;44.20;100563.47;5026013;28;20080;-69
2022/07/23 08:25:32;;;;;;;5.28;4.78;;;;;;;26.10;44.65;100566.97;5016141;28;20413;-71
2022/07/23 08:28:01;;;;;;;9.18;5.13;;;;;;;25.72;46.53;100546.72;5017677;28;20100;-70
2022/07/23 08:30:29;;;;;;;6.65;4.70;;;;;;;26.09;46.45;100563.41;5014060;28;20125;-70
2022/07/23 08:33:00;;;;;;;5.57;4.78;;;;;;;26.28;45.64;100564.13;5015507;28;20052;-70
2022/07/23 08:35:30;;;;;;;6.90;4.68;;;;;;;26.41;45.24;100550.91;5015355;28;20050;-71
2022/07/23 08:37:58;;;;;;;5.35;4.85;;;;;;;26.63;44.84;100566.50;5018465;28;20061;-69
2022/07/23 08:40:29;;;;;;;5.93;4.50;;;;;;;26.66;44.41;100578.88;5013211;28;20139;-70
2022/07/23 08:42:57;;;;;;;6.13;4.50;;;;;;;26.54;44.37;100579.25;5018641;28;20128;-70
2022/07/23 08:45:25;;;;;;;6.68;4.60;;;;;;;26.37;44.87;100580.25;5021072;28;20409;-69
2022/07/23 08:48:00;;;;;;;6.10;4.70;;;;;;;26.38;44.02;100575.69;5012228;28;20612;-71
2022/07/23 08:50:32;;;;;;;5.65;4.75;;;;;;;26.26;44.82;100582.44;5012661;28;20100;-69
2022/07/23 08:53:00;;;;;;;5.28;4.78;;;;;;;26.27;44.78;100578.72;5012898;28;20069;-70
2022/07/23 08:55:27;;;;;;;5.93;4.90;;;;;;;26.33;44.57;100580.75;5009584;28;20073;-70
2022/07/23 08:57:53;;;;;;;5.43;4.93;;;;;;;26.52;44.40;100577.72;5009903;28;20564;-70
2022/07/23 09:00:21;;;;;;;5.95;4.97;;;;;;;26.66;44.67;100573.44;5016724;28;20146;-69
2022/07/23 09:02:50;;;;;;;5.40;4.90;;;;;;;26.52;44.90;100558.69;5012741;28;20116;-70
2022/07/23 09:05:18;;;;;;;5.93;4.93;;;;;;;26.92;44.31;100575.97;5019258;28;20045;-70
2022/07/23 09:08:09;;;;;;;5.63;5.05;;;;;;;27.30;43.01;100583.34;5025981;28;20054;-70
2022/07/23 09:11:01;;;;;;;7.90;5.28;;;;;;;27.09;42.89;100556.75;5015826;28;20445;-70
2022/07/23 09:13:37;;;;;;;4.97;4.55;;;;;;;27.40;43.11;100567.66;5017620;28;20038;-69
2022/07/23 09:16:14;;;;;;;5.97;4.88;;;;;;;27.78;42.96;100576.88;5014456;28;20365;-70
2022/07/23 09:18:52;;;;;;;6.50;4.90;;;;;;;27.97;42.75;100558.38;5019448;28;20606;-69
2022/07/23 09:21:25;;;;;;;5.90;4.72;;;;;;;28.07;41.45;100562.56;5024028;28;20042;-70
2022/07/23 09:23:57;;;;;;;6.10;5.22;;;;;;;27.90;40.84;100569.13;5024393;28;20116;-70
2022/07/23 09:26:39;;;;;;;5.90;4.72;;;;;;;27.40;42.62;100562.22;5018443;28;20067;-69
2022/07/23 09:29:08;;;;;;;7.57;5.60;;;;;;;27.24;43.30;100567.72;5012088;28;20079;-70
2022/07/23 09:31:51;;;;;;;5.85;5.25;;;;;;;27.12;43.29;100572.69;5012532;28;20042;-70
2022/07/23 09:34:23;;;;;;;7.22;5.50;;;;;;;26.86;43.32;100570.19;5005928;28;20046;-71
2022/07/23 09:36:53;;;;;;;8.80;4.82;;;;;;;26.74;43.53;100565.31;5007146;28;20146;-74
2022/07/23 09:39:33;;;;;;;6.18;4.85;;;;;;;26.84;43.22;100557.81;5004123;28;20065;-70
2022/07/23 09:42:18;;;;;;;5.43;4.47;;;;;;;27.14;42.99;100578.81;5009161;28;20147;-71
2022/07/23 09:44:50;;;;;;;4.93;4.53;;;;;;;27.04;42.53;100580.91;5013355;28;20119;-71
2022/07/23 09:47:17;;;;;;;5.45;4.70;;;;;;;26.88;43.33;100573.59;5007592;28;20050;-70
2022/07/23 09:50:06;;;;;;;5.55;4.88;;;;;;;26.73;42.95;100579.91;5008526;28;20140;-71
2022/07/23 09:52:36;;;;;;;7.55;5.30;;;;;;;26.68;42.70;100561.41;5010307;28;20045;-71
2022/07/23 09:55:05;;;;;;;5.53;4.80;;;;;;;26.92;42.75;100583.06;5009965;28;20096;-71
2022/07/23 09:57:32;;;;;;;7.70;4.82;;;;;;;27.03;42.15;100572.91;5012255;28;20049;-73
2022/07/23 10:00:09;;;;;;;5.70;4.57;;;;;;;26.89;41.62;100564.44;5012142;28;20167;-70
2022/07/23 10:02:37;;;;;;;5.65;4.85;;;;;;;26.89;41.77;100564.44;5009400;28;20073;-70
2022/07/23 10:05:05;;;;;;;5.57;4.85;;;;;;;26.76;41.65;100572.25;5015121;28;20037;-70
2022/07/23 10:07:36;;;;;;;6.25;5.00;;;;;;;26.56;42.63;100573.63;5014762;28;20086;-71
2022/07/23 10:10:05;;;;;;;6.05;4.72;;;;;;;26.36;43.03;100575.00;5021397;28;20115;-70
2022/07/23 10:15:31;;;;;;;6.40;4.70;;;;;;;26.39;42.65;100580.09;5003035;28;20050;-70
2022/07/23 10:17:57;;;;;;;4.93;4.30;;;;;;;26.48;43.33;100579.91;5023592;28;20065;-70
2022/07/23 10:20:24;;;;;;;5.80;4.65;;;;;;;26.56;42.78;100579.06;5024214;28;20544;-72
2022/07/23 10:23:11;;;;;;;7.25;5.10;;;;;;;26.80;42.01;100579.03;5024003;28;20183;-72
2022/07/23 10:25:51;;;;;;;4.90;4.35;;;;;;;26.75;42.23;100565.13;5024735;28;20053;-72
2022/07/23 10:28:43;;;;;;;5.72;4.60;;;;;;;26.73;43.20;100574.47;5024497;28;20048;-70
2022/07/23 10:31:25;;;;;;;5.25;4.75;;;;;;;26.48;42.69;100549.19;5025373;28;20092;-71
2022/07/23 10:34:31;;;;;;;5.30;4.80;;;;;;;26.47;42.65;100563.78;5027453;28;20037;-71
2022/07/23 10:37:05;;;;;;;7.63;5.30;;;;;;;26.31;42.50;100567.34;5023341;28;20049;-71
2022/07/23 10:39:34;;;;;;;7.38;5.20;;;;;;;26.26;43.88;100575.13;5026009;28;20057;-71
2022/07/23 10:42:12;;;;;;;6.20;5.22;;;;;;;26.42;43.11;100564.31;5025099;28;20047;-72
2022/07/23 10:44:44;;;;;;;6.93;4.78;;;;;;;26.55;42.69;100561.94;5024327;28;20543;-73
2022/07/23 10:49:49;;;;;;;7.32;5.50;;;;;;;26.73;42.56;100550.88;5025453;28;20053;-69
2022/07/23 10:52:21;;;;;;;7.20;5.03;;;;;;;26.70;42.84;100555.78;5025443;28;20560;-72
2022/07/23 10:55:15;;;;;;;5.20;4.70;;;;;;;26.81;43.13;100558.16;5031197;28;20556;-72
2022/07/23 10:57:49;;;;;;;6.22;5.22;;;;;;;26.85;42.11;100537.75;5020085;28;20515;-72
2022/07/23 11:00:21;;;;;;;5.43;4.93;;;;;;;26.94;42.18;100553.03;5026623;28;20057;-72
2022/07/23 11:02:52;;;;;;;6.00;5.25;;;;;;;26.89;42.29;100552.72;5022597;28;20110;-71
2022/07/23 11:05:22;;;;;;;5.00;4.50;;;;;;;26.83;41.75;100543.38;5035574;28;20111;-71
2022/07/23 11:08:03;;;;;;;5.97;4.82;;;;;;;27.12;41.21;100548.25;5027451;28;20068;-71
2022/07/23 11:10:43;;;;;;;6.82;5.07;;;;;;;27.15;40.63;100549.75;5035587;28;20491;-70
2022/07/23 11:13:22;;;;;;;5.38;4.88;;;;;;;27.07;40.91;100545.22;5029434;28;20068;-70
2022/07/23 11:16:01;;;;;;;7.25;4.93;;;;;;;27.10;41.19;100544.00;5035746;28;20551;-71
2022/07/23 11:18:40;;;;;;;5.72;5.15;;;;;;;27.15;41.26;100538.88;5039453;28;20055;-71
2022/07/23 11:21:26;;;;;;;6.88;4.97;;;;;;;27.22;41.76;100548.06;5033776;28;20347;-71
2022/07/23 11:24:02;;;;;;;6.53;5.05;;;;;;;27.15;41.44;100547.03;5043081;28;20106;-71
2022/07/23 11:26:38;;;;;;;6.35;5.72;;;;;;;27.06;41.45;100545.38;5032312;28;20049;-71
2022/07/23 11:29:31;;;;;;;5.88;5.38;;;;;;;26.87;42.41;100539.28;5040755;28;20500;-70
2022/07/23 11:32:01;;;;;;;8.38;5.28;;;;;;;27.09;41.56;100536.84;5030953;28;20063;-72
2022/07/23 11:34:40;;;;;;;5.60;5.10;;;;;;;27.44;40.66;100536.38;5036479;28;20088;-74
2022/07/23 11:37:09;;;;;;;8.63;5.90;;;;;;;27.58;40.31;100521.19;5032527;28;20100;-73